createdAt,value
2016-04-22T00:00:50.897Z,0
2016-04-22T00:01:50.885Z,0
2016-04-22T00:02:50.888Z,0
2016-04-22T00:03:50.707Z,0
2016-04-22T00:04:50.870Z,0
2016-04-22T00:05:50.873Z,0
2016-04-22T00:06:50.861Z,0
2016-04-22T00:07:50.832Z,0
2016-04-22T00:08:50.866Z,0
2016-04-22T00:09:50.837Z,0
2016-04-22T00:10:50.809Z,0
2016-04-22T00:11:50.983Z,0
2016-04-22T00:12:50.830Z,0
2016-04-22T00:13:52.036Z,0
2016-04-22T00:14:50.805Z,0
2016-04-22T00:15:51.307Z,0
2016-04-22T00:16:51.435Z,0
2016-04-22T00:17:50.905Z,0
2016-04-22T00:18:50.769Z,0
2016-04-22T00:19:51.568Z,0
2016-04-22T00:20:50.758Z,0
2016-04-22T00:21:51.323Z,0
2016-04-22T00:22:51.888Z,0
2016-04-22T00:23:51.250Z,0
2016-04-22T00:24:51.160Z,0
2016-04-22T00:25:51.005Z,0
2016-04-22T00:26:50.727Z,0
2016-04-22T00:27:50.715Z,0
2016-04-22T00:28:50.529Z,0
2016-04-22T00:29:50.688Z,0
2016-04-22T00:30:50.676Z,0
2016-04-22T00:31:50.694Z,0
2016-04-22T00:32:50.649Z,0
2016-04-22T00:33:50.652Z,0
2016-04-22T00:34:50.670Z,0
2016-04-22T00:35:50.627Z,0
2016-04-22T00:36:50.661Z,0
2016-04-22T00:37:50.633Z,0
2016-04-22T00:38:50.636Z,0
2016-04-22T00:39:50.607Z,0
2016-04-22T00:40:50.625Z,0
2016-04-22T00:41:50.597Z,0
2016-04-22T00:42:50.599Z,0
2016-04-22T00:43:50.601Z,0
2016-04-22T00:44:50.590Z,0
2016-04-22T00:45:50.560Z,0
2016-04-22T00:46:50.407Z,0
2016-04-22T00:47:50.565Z,0
2016-04-22T00:48:50.553Z,0
2016-04-22T00:49:50.555Z,0
2016-04-22T00:50:50.527Z,0
2016-04-22T00:51:50.389Z,0
2016-04-22T00:52:50.517Z,0
2016-04-22T00:53:50.520Z,0
2016-04-22T00:54:50.492Z,0
2016-04-22T00:55:50.494Z,0
2016-04-22T00:56:50.464Z,0
2016-04-22T00:57:50.827Z,0
2016-04-22T00:58:52.064Z,0
2016-04-22T00:59:50.473Z,0
2016-04-22T01:00:50.475Z,0
2016-04-22T01:01:50.916Z,0
2016-04-22T01:02:50.433Z,0
2016-04-22T01:03:50.811Z,0
2016-04-22T01:04:50.283Z,0
2016-04-22T01:05:50.427Z,0
2016-04-22T01:06:50.585Z,0
2016-04-22T01:07:51.635Z,0
2016-04-22T01:08:50.950Z,0
2016-04-22T01:09:50.390Z,0
2016-04-22T01:10:50.721Z,0
2016-04-22T01:11:50.771Z,0
2016-04-22T01:12:50.602Z,0
2016-04-22T01:13:50.370Z,0
2016-04-22T01:14:50.341Z,0
2016-04-22T01:15:50.344Z,0
2016-04-22T01:16:50.331Z,0
2016-04-22T01:17:50.334Z,0
2016-04-22T01:18:50.321Z,0
2016-04-22T01:19:50.292Z,0
2016-04-22T01:20:50.295Z,0
2016-04-22T01:21:50.282Z,0
2016-04-22T01:22:50.301Z,0
2016-04-22T01:23:50.272Z,0
2016-04-22T01:24:50.290Z,0
2016-04-22T01:25:50.278Z,0
2016-04-22T01:26:50.248Z,0
2016-04-22T01:27:50.298Z,0
2016-04-22T01:28:50.254Z,0
2016-04-22T01:29:51.085Z,0
2016-04-22T01:30:51.150Z,0
2016-04-22T01:31:50.403Z,0
2016-04-22T01:32:51.202Z,0
2016-04-22T01:33:50.205Z,0
2016-04-22T01:34:50.286Z,0
2016-04-22T01:35:50.180Z,0
2016-04-22T01:36:50.182Z,0
2016-04-22T01:37:50.185Z,0
2016-04-22T01:38:52.313Z,0
2016-04-22T01:39:50.502Z,0
2016-04-22T01:40:51.365Z,0
2016-04-22T01:41:51.414Z,0
2016-04-22T01:42:50.902Z,0
2016-04-22T01:43:50.107Z,0
2016-04-22T01:44:50.094Z,0
2016-04-22T01:45:50.268Z,0
2016-04-22T01:46:50.099Z,0
2016-04-22T01:47:50.087Z,0
2016-04-22T01:48:50.090Z,0
2016-04-22T01:49:50.076Z,0
2016-04-22T01:50:50.079Z,0
2016-04-22T01:51:50.066Z,0
2016-04-22T01:52:50.053Z,0
2016-04-22T01:53:50.025Z,0
2016-04-22T01:54:50.059Z,0
2016-04-22T01:55:50.015Z,0
2016-04-22T01:56:50.033Z,0
2016-04-22T01:57:50.020Z,0
2016-04-22T01:58:50.022Z,0
2016-04-22T01:59:50.009Z,0
2016-04-22T02:00:49.965Z,0
2016-04-22T02:01:49.968Z,0
2016-04-22T02:02:49.970Z,0
2016-04-22T02:03:49.973Z,0
2016-04-22T02:04:49.976Z,0
2016-04-22T02:05:49.213Z,0
2016-04-22T02:06:49.935Z,0
2016-04-22T02:07:49.938Z,0
2016-04-22T02:08:49.909Z,0
2016-04-22T02:09:49.927Z,0
2016-04-22T02:10:49.899Z,0
2016-04-22T02:11:49.902Z,0
2016-04-22T02:12:49.169Z,0
2016-04-22T02:13:49.891Z,0
2016-04-22T02:14:49.863Z,0
2016-04-22T02:15:49.709Z,0
2016-04-22T02:16:50.977Z,0
2016-04-22T02:17:49.855Z,0
2016-04-22T02:18:49.842Z,0
2016-04-22T02:19:49.845Z,0
2016-04-22T02:21:04.801Z,0
2016-04-22T02:21:50.007Z,0
2016-04-22T02:22:49.790Z,0
2016-04-22T02:23:49.793Z,0
2016-04-22T02:24:49.826Z,0
2016-04-22T02:25:51.642Z,0
2016-04-22T02:27:03.973Z,0
2016-04-22T02:27:50.570Z,0
2016-04-22T02:28:49.744Z,0
2016-04-22T02:29:49.747Z,0
2016-04-22T02:31:49.798Z,0
2016-04-22T02:32:49.755Z,0
2016-04-22T02:33:49.772Z,0
2016-04-22T02:34:49.728Z,0
2016-04-22T02:35:49.716Z,0
2016-04-22T02:36:49.719Z,0
2016-04-22T02:37:49.689Z,0
2016-04-22T02:38:49.708Z,0
2016-04-22T02:39:49.695Z,0
2016-04-22T02:40:49.666Z,0
2016-04-22T02:41:49.638Z,0
2016-04-22T02:42:49.672Z,0
2016-04-22T02:43:49.628Z,0
2016-04-22T02:44:49.630Z,0
2016-04-22T02:45:49.618Z,0
2016-04-22T02:46:49.620Z,0
2016-04-22T02:47:49.607Z,0
2016-04-22T02:48:49.673Z,0
2016-04-22T02:49:49.565Z,0
2016-04-22T02:50:50.881Z,0
2016-04-22T02:51:49.649Z,0
2016-04-22T02:52:49.980Z,0
2016-04-22T02:53:50.232Z,0
2016-04-22T02:54:49.939Z,0
2016-04-22T02:55:49.550Z,0
2016-04-22T02:56:49.538Z,0
2016-04-22T02:57:50.385Z,0
2016-04-22T02:58:51.683Z,0
2016-04-22T02:59:49.499Z,0
2016-04-22T03:00:49.486Z,0
2016-04-22T03:01:49.489Z,0
2016-04-22T03:02:50.117Z,0
2016-04-22T03:03:49.494Z,0
2016-04-22T03:04:49.809Z,0
2016-04-22T03:05:49.483Z,0
2016-04-22T03:06:49.439Z,0
2016-04-22T03:07:49.442Z,0
2016-04-22T03:08:49.429Z,0
2016-04-22T03:09:49.400Z,0
2016-04-22T03:10:49.419Z,0
2016-04-22T03:11:49.406Z,4
2016-04-22T03:12:48.659Z,4
2016-04-22T03:13:49.365Z,0
2016-04-22T03:14:49.383Z,0
2016-04-22T03:15:49.371Z,4
2016-04-22T03:16:49.341Z,4
2016-04-22T03:17:49.360Z,4
2016-04-22T03:18:49.332Z,4
2016-04-22T03:19:49.349Z,4
2016-04-22T03:20:49.321Z,4
2016-04-22T03:21:49.308Z,4
2016-04-22T03:22:49.310Z,8
2016-04-22T03:23:49.282Z,8
2016-04-22T03:24:49.301Z,12
2016-04-22T03:25:49.288Z,12
2016-04-22T03:26:49.276Z,16
2016-04-22T03:27:49.106Z,16
2016-04-22T03:28:49.249Z,20
2016-04-22T03:29:49.236Z,24
2016-04-22T03:30:49.239Z,24
2016-04-22T03:31:49.226Z,32
2016-04-22T03:32:49.212Z,36
2016-04-22T03:33:49.200Z,44
2016-04-22T03:34:49.202Z,48
2016-04-22T03:35:50.830Z,68
2016-04-22T03:36:49.208Z,80
2016-04-22T03:37:49.163Z,72
2016-04-22T03:39:03.354Z,84
2016-04-22T03:39:49.153Z,92
2016-04-22T03:40:49.359Z,108
2016-04-22T03:41:49.331Z,120
2016-04-22T03:42:49.396Z,140
2016-04-22T03:43:49.133Z,156
2016-04-22T03:44:50.605Z,176
2016-04-22T03:45:49.216Z,196
2016-04-22T03:46:50.391Z,220
2016-04-22T03:47:49.097Z,244
2016-04-22T03:48:49.084Z,268
2016-04-22T03:49:49.462Z,296
2016-04-22T03:50:49.057Z,324
2016-04-22T03:51:49.060Z,352
2016-04-22T03:52:49.141Z,380
2016-04-22T03:53:49.035Z,416
2016-04-22T03:54:49.007Z,448
2016-04-22T03:55:49.025Z,484
2016-04-22T03:56:48.996Z,524
2016-04-22T03:57:49.030Z,560
2016-04-22T03:58:48.970Z,608
2016-04-22T03:59:48.989Z,656
2016-04-22T04:00:48.976Z,704
2016-04-22T04:01:48.962Z,756
2016-04-22T04:02:48.950Z,812
2016-04-22T04:03:48.967Z,872
2016-04-22T04:04:48.798Z,928
2016-04-22T04:05:48.942Z,992
2016-04-22T04:06:48.913Z,1056
2016-04-22T04:07:50.057Z,1124
2016-04-22T04:08:49.247Z,1200
2016-04-22T04:09:48.891Z,1268
2016-04-22T04:10:48.972Z,1340
2016-04-22T04:11:49.130Z,1408
2016-04-22T04:12:49.055Z,1484
2016-04-22T04:13:48.869Z,1560
2016-04-22T04:14:48.841Z,1680
2016-04-22T04:15:48.844Z,1804
2016-04-22T04:16:50.862Z,1900
2016-04-22T04:17:49.083Z,1984
2016-04-22T04:18:49.336Z,2032
2016-04-22T04:19:49.010Z,2084
2016-04-22T04:20:48.795Z,2112
2016-04-22T04:21:49.016Z,2232
2016-04-22T04:22:48.815Z,2404
2016-04-22T04:23:48.824Z,2568
2016-04-22T04:24:48.711Z,2660
2016-04-22T04:25:48.908Z,2792
2016-04-22T04:26:48.935Z,2864
2016-04-22T04:27:48.950Z,2944
2016-04-22T04:28:48.967Z,2908
2016-04-22T04:29:48.969Z,3132
2016-04-22T04:30:48.970Z,3240
2016-04-22T04:31:48.971Z,3400
2016-04-22T04:32:48.984Z,3596
2016-04-22T04:33:48.852Z,3704
2016-04-22T04:34:48.985Z,3760
2016-04-22T04:35:48.960Z,3916
2016-04-22T04:36:48.985Z,4140
2016-04-22T04:37:48.974Z,3660
2016-04-22T04:38:48.964Z,4736
2016-04-22T04:39:48.953Z,4456
2016-04-22T04:40:48.957Z,4936
2016-04-22T04:41:48.962Z,4760
2016-04-22T04:42:48.966Z,5452
2016-04-22T04:43:48.938Z,5676
2016-04-22T04:44:48.925Z,5676
2016-04-22T04:45:48.928Z,5708
2016-04-22T04:46:48.947Z,6112
2016-04-22T04:47:48.919Z,6236
2016-04-22T04:48:48.923Z,6440
2016-04-22T04:49:48.910Z,6456
2016-04-22T04:50:48.913Z,6896
2016-04-22T04:51:48.900Z,6880
2016-04-22T04:52:48.903Z,6988
2016-04-22T04:53:48.891Z,7440
2016-04-22T04:54:49.643Z,7440
2016-04-22T04:55:49.302Z,6244
2016-04-22T04:56:48.898Z,7924
2016-04-22T04:57:49.526Z,7688
2016-04-22T04:58:48.747Z,5280
2016-04-22T04:59:48.874Z,5900
2016-04-22T05:00:48.877Z,6172
2016-04-22T05:01:48.865Z,6052
2016-04-22T05:02:48.882Z,6556
2016-04-22T05:03:50.573Z,6276
2016-04-22T05:04:49.779Z,6724
2016-04-22T05:05:48.876Z,7704
2016-04-22T05:06:48.879Z,9636
2016-04-22T05:07:49.256Z,6336
2016-04-22T05:08:48.337Z,6756
2016-04-22T05:09:48.840Z,6792
2016-04-22T05:10:48.859Z,8856
2016-04-22T05:11:48.846Z,9976
2016-04-22T05:12:48.864Z,11000
2016-04-22T05:13:48.882Z,11864
2016-04-22T05:14:48.854Z,12048
2016-04-22T05:15:48.841Z,9808
2016-04-22T05:16:48.843Z,10760
2016-04-22T05:17:48.846Z,12380
2016-04-22T05:18:48.834Z,12792
2016-04-22T05:19:48.837Z,12912
2016-04-22T05:20:48.839Z,13308
2016-04-22T05:21:48.842Z,13824
2016-04-22T05:22:48.845Z,15136
2016-04-22T05:23:48.862Z,14592
2016-04-22T05:24:48.865Z,15680
2016-04-22T05:25:49.617Z,15008
2016-04-22T05:26:50.886Z,14784
2016-04-22T05:27:49.905Z,11736
2016-04-22T05:28:48.923Z,16704
2016-04-22T05:29:49.175Z,9360
2016-04-22T05:30:49.116Z,15808
2016-04-22T05:31:48.978Z,16640
2016-04-22T05:32:48.839Z,7812
2016-04-22T05:33:48.842Z,18176
2016-04-22T05:34:48.845Z,17248
2016-04-22T05:35:50.269Z,13312
2016-04-22T05:36:50.975Z,9684
2016-04-22T05:37:48.885Z,11268
2016-04-22T05:38:48.841Z,17856
2016-04-22T05:39:49.313Z,17728
2016-04-22T05:40:49.454Z,13136
2016-04-22T05:41:49.302Z,19136
2016-04-22T05:42:49.163Z,20288
2016-04-22T05:43:48.916Z,17760
2016-04-22T05:44:48.872Z,20192
2016-04-22T05:45:48.874Z,15840
2016-04-22T05:46:48.862Z,21568
2016-04-22T05:47:48.880Z,20192
2016-04-22T05:48:48.882Z,22624
2016-04-22T05:49:48.901Z,19488
2016-04-22T05:50:48.872Z,24256
2016-04-22T05:51:48.890Z,24896
2016-04-22T05:52:48.893Z,25344
2016-04-22T05:53:48.895Z,23232
2016-04-22T05:54:48.898Z,26528
2016-04-22T05:55:48.917Z,25952
2016-04-22T05:56:48.904Z,14828
2016-04-22T05:57:48.906Z,14328
2016-04-22T05:58:48.942Z,13204
2016-04-22T05:59:48.912Z,12972
2016-04-22T06:00:48.915Z,10504
2016-04-22T06:01:48.917Z,11816
2016-04-22T06:02:48.952Z,12260
2016-04-22T06:03:48.923Z,26720
2016-04-22T06:04:48.958Z,12692
2016-04-22T06:05:48.944Z,19488
2016-04-22T06:06:48.963Z,11992
2016-04-22T06:07:48.950Z,10248
2016-04-22T06:08:49.000Z,17376
2016-04-22T06:09:48.970Z,9400
2016-04-22T06:10:48.973Z,22720
2016-04-22T06:11:48.960Z,12936
2016-04-22T06:12:49.072Z,13836
2016-04-22T06:14:03.153Z,16704
2016-04-22T06:14:49.532Z,13112
2016-04-22T06:15:48.970Z,14032
2016-04-22T06:16:49.223Z,14800
2016-04-22T06:17:49.960Z,15584
2016-04-22T06:18:49.604Z,13992
2016-04-22T06:19:48.997Z,16736
2016-04-22T06:20:49.109Z,15616
2016-04-22T06:21:49.003Z,10976
2016-04-22T06:22:50.802Z,11152
2016-04-22T06:23:49.180Z,14776
2016-04-22T06:24:49.433Z,11824
2016-04-22T06:25:49.217Z,13348
2016-04-22T06:26:49.251Z,11960
2016-04-22T06:27:49.316Z,10060
2016-04-22T06:28:49.022Z,11720
2016-04-22T06:29:49.071Z,11684
2016-04-22T06:30:48.996Z,11100
2016-04-22T06:31:48.998Z,11076
2016-04-22T06:32:49.001Z,11852
2016-04-22T06:33:49.020Z,13180
2016-04-22T06:34:49.006Z,17152
2016-04-22T06:35:49.009Z,16704
2016-04-22T06:36:49.012Z,14068
2016-04-22T06:37:49.014Z,13848
2016-04-22T06:38:49.017Z,26944
2016-04-22T06:39:49.066Z,26976
2016-04-22T06:40:48.991Z,34592
2016-04-22T06:41:49.010Z,15776
2016-04-22T06:42:49.027Z,14868
2016-04-22T06:43:49.015Z,18848
2016-04-22T06:44:49.283Z,19168
2016-04-22T06:45:49.224Z,17760
2016-04-22T06:46:50.898Z,16896
2016-04-22T06:47:49.198Z,19360
2016-04-22T06:48:49.810Z,13448
2016-04-22T06:49:49.501Z,12628
2016-04-22T06:50:48.987Z,15680
2016-04-22T06:51:49.615Z,14572
2016-04-22T06:52:49.023Z,13800
2016-04-22T06:53:49.012Z,11868
2016-04-22T06:54:49.450Z,11776
2016-04-22T06:55:49.828Z,13112
2016-04-22T06:56:49.581Z,31936
2016-04-22T06:57:49.006Z,63712
2016-04-22T06:58:50.009Z,17440
2016-04-22T06:59:49.028Z,18720
2016-04-22T07:00:49.030Z,20640
2016-04-22T07:01:49.407Z,45600
2016-04-22T07:02:49.019Z,13940
2016-04-22T07:03:49.006Z,12800
2016-04-22T07:04:49.009Z,12652
2016-04-22T07:05:50.886Z,13372
2016-04-22T07:06:49.405Z,13828
2016-04-22T07:07:49.002Z,13404
2016-04-22T07:08:49.019Z,14796
2016-04-22T07:09:48.866Z,17920
2016-04-22T07:10:49.025Z,18368
2016-04-22T07:11:49.028Z,28800
2016-04-22T07:12:49.000Z,63648
2016-04-22T07:13:49.018Z,66432
2016-04-22T07:14:48.989Z,63296
2016-04-22T07:15:49.023Z,17824
2016-04-22T07:16:48.854Z,26496
2016-04-22T07:17:49.013Z,30144
2016-04-22T07:18:49.015Z,51360
2016-04-22T07:19:49.034Z,65664
2016-04-22T07:20:49.021Z,64320
2016-04-22T07:21:49.039Z,19072
2016-04-22T07:22:49.042Z,17856
2016-04-22T07:23:49.045Z,16256
2016-04-22T07:24:49.015Z,15152
2016-04-22T07:25:49.050Z,14720
2016-04-22T07:26:49.037Z,17504
2016-04-22T07:27:49.023Z,16704
2016-04-22T07:28:49.042Z,16020
2016-04-22T07:29:49.061Z,24288
2016-04-22T07:30:49.032Z,22912
2016-04-22T07:32:17.442Z,63168
2016-04-22T07:32:49.178Z,63680
2016-04-22T07:33:49.086Z,67776
2016-04-22T07:35:03.450Z,68160
2016-04-22T07:35:50.014Z,73952
2016-04-22T07:36:49.548Z,72992
2016-04-22T07:37:49.067Z,68576
2016-04-22T07:38:49.100Z,68224
2016-04-22T07:39:49.103Z,84640
2016-04-22T07:40:49.122Z,99552
2016-04-22T07:41:50.390Z,104992
2016-04-22T07:42:51.111Z,53824
2016-04-22T07:43:49.114Z,93568
2016-04-22T07:44:49.944Z,85184
2016-04-22T07:45:49.494Z,83968
2016-04-22T07:46:49.716Z,85120
2016-04-22T07:47:49.515Z,86848
2016-04-22T07:48:49.487Z,90592
2016-04-22T07:49:49.208Z,89344
2016-04-22T07:50:49.210Z,89280
2016-04-22T07:51:49.213Z,88544
2016-04-22T07:52:49.248Z,83296
2016-04-22T07:53:49.250Z,83136
2016-04-22T07:54:49.268Z,86688
2016-04-22T07:55:49.256Z,80832
2016-04-22T07:56:49.149Z,81120
2016-04-22T07:57:49.277Z,86432
2016-04-22T07:58:49.312Z,82400
2016-04-22T07:59:49.314Z,77600
2016-04-22T08:00:49.363Z,88096
2016-04-22T08:01:49.350Z,79712
2016-04-22T08:02:49.367Z,61088
2016-04-22T08:03:52.293Z,60448
2016-04-22T08:04:51.171Z,54976
2016-04-22T08:05:49.672Z,48576
2016-04-22T08:06:50.504Z,29856
2016-04-22T08:07:50.303Z,60256
2016-04-22T08:08:49.541Z,63392
2016-04-22T08:09:49.497Z,64448
2016-04-22T08:10:49.483Z,63072
2016-04-22T08:11:49.627Z,58656
2016-04-22T08:12:49.520Z,54464
2016-04-22T08:13:52.226Z,55616
2016-04-22T08:14:49.557Z,61152
2016-04-22T08:15:49.560Z,60704
2016-04-22T08:16:50.234Z,57056
2016-04-22T08:17:50.065Z,55072
2016-04-22T08:18:50.208Z,52896
2016-04-22T08:19:49.618Z,52992
2016-04-22T08:20:49.635Z,59040
2016-04-22T08:21:49.654Z,63776
2016-04-22T08:22:49.657Z,55904
2016-04-22T08:23:49.690Z,48512
2016-04-22T08:24:49.740Z,46144
2016-04-22T08:25:49.727Z,44064
2016-04-22T08:26:49.714Z,35008
2016-04-22T08:27:49.748Z,61760
2016-04-22T08:28:49.735Z,14160
2016-04-22T08:29:49.769Z,59072
2016-04-22T08:30:49.772Z,48160
2016-04-22T08:31:49.790Z,22720
2016-04-22T08:32:49.808Z,10560
2016-04-22T08:33:49.811Z,11060
2016-04-22T08:34:49.829Z,12000
2016-04-22T08:35:49.847Z,13640
2016-04-22T08:36:49.851Z,14296
2016-04-22T08:37:49.853Z,15004
2016-04-22T08:38:49.871Z,14888
2016-04-22T08:39:49.858Z,15136
2016-04-22T08:40:49.877Z,15232
2016-04-22T08:41:49.895Z,15188
2016-04-22T08:42:49.898Z,15272
2016-04-22T08:43:49.885Z,13680
2016-04-22T08:44:49.919Z,12884
2016-04-22T08:45:49.922Z,13176
2016-04-22T08:46:49.924Z,12232
2016-04-22T08:47:49.943Z,11852
2016-04-22T08:48:49.946Z,11356
2016-04-22T08:49:49.932Z,10068
2016-04-22T08:51:18.310Z,8688
2016-04-22T08:52:50.472Z,8292
2016-04-22T08:53:50.505Z,8264
2016-04-22T08:54:49.805Z,8440
2016-04-22T08:55:49.949Z,8860
2016-04-22T08:56:49.951Z,9364
2016-04-22T08:57:49.984Z,9352
2016-04-22T08:58:49.956Z,8960
2016-04-22T08:59:50.007Z,8548
2016-04-22T09:00:50.212Z,8600
2016-04-22T09:01:50.777Z,8896
2016-04-22T09:02:50.467Z,9560
2016-04-22T09:03:49.986Z,10928
2016-04-22T09:04:50.473Z,12240
2016-04-22T09:05:50.194Z,13376
2016-04-22T09:06:49.994Z,12968
2016-04-22T09:07:49.981Z,12108
2016-04-22T09:08:49.968Z,11076
2016-04-22T09:09:49.986Z,11036
2016-04-22T09:10:49.989Z,11228
2016-04-22T09:11:49.975Z,11752
2016-04-22T09:12:49.963Z,11948
2016-04-22T09:13:49.980Z,12516
2016-04-22T09:14:49.983Z,14116
2016-04-22T09:15:49.987Z,16248
2016-04-22T09:16:49.974Z,17440
2016-04-22T09:17:49.977Z,18272
2016-04-22T09:18:49.979Z,17536
2016-04-22T09:19:49.997Z,14996
2016-04-22T09:20:49.969Z,12820
2016-04-22T09:21:50.002Z,10700
2016-04-22T09:22:52.380Z,9276
2016-04-22T09:23:50.812Z,8768
2016-04-22T09:24:49.986Z,8488
2016-04-22T09:25:49.973Z,8492
2016-04-22T09:26:49.992Z,8920
2016-04-22T09:27:50.791Z,9680
2016-04-22T09:28:50.295Z,10800
2016-04-22T09:29:50.047Z,13240
2016-04-22T09:30:50.127Z,15884
2016-04-22T09:32:51.836Z,16768
2016-04-22T09:33:51.432Z,16340
2016-04-22T09:34:50.436Z,15396
2016-04-22T09:35:51.142Z,14320
2016-04-22T09:36:49.988Z,12344
2016-04-22T09:37:50.132Z,11488
2016-04-22T09:38:49.994Z,11136
2016-04-22T09:39:49.981Z,10536
2016-04-22T09:40:49.999Z,10312
2016-04-22T09:41:49.986Z,9960
2016-04-22T09:42:50.005Z,9844
2016-04-22T09:43:50.007Z,10472
2016-04-22T09:44:50.025Z,11500
2016-04-22T09:45:49.981Z,12680
2016-04-22T09:46:50.000Z,13348
2016-04-22T09:47:49.987Z,12940
2016-04-22T09:48:50.005Z,12236
2016-04-22T09:49:49.992Z,12448
2016-04-22T09:50:50.010Z,12588
2016-04-22T09:51:49.997Z,12108
2016-04-22T09:52:49.984Z,11876
2016-04-22T09:53:49.987Z,10212
2016-04-22T09:54:49.974Z,10036
2016-04-22T09:55:49.993Z,9980
2016-04-22T09:56:49.980Z,9408
2016-04-22T09:57:49.998Z,9140
2016-04-22T09:58:49.985Z,9156
2016-04-22T09:59:49.862Z,9172
2016-04-22T10:00:50.021Z,9516
2016-04-22T10:01:50.009Z,9812
2016-04-22T10:02:49.995Z,11220
2016-04-22T10:03:49.984Z,12388
2016-04-22T10:04:50.000Z,12296
2016-04-22T10:05:49.989Z,11236
2016-04-22T10:06:50.006Z,11432
2016-04-22T10:07:49.994Z,11352
2016-04-22T10:13:33.977Z,10564
2016-04-22T10:13:46.946Z,10600
2016-04-22T10:14:46.277Z,10200
2016-04-22T10:15:46.186Z,9632
2016-04-22T10:16:46.189Z,9492
2016-04-22T10:17:46.223Z,9476
2016-04-22T10:18:46.194Z,8812
2016-04-22T10:19:46.416Z,8356
2016-04-22T10:20:46.419Z,8660
2016-04-22T10:21:46.218Z,9244
2016-04-22T10:22:46.940Z,9944
2016-04-22T10:23:46.223Z,10716
2016-04-22T10:24:46.460Z,10556
2016-04-22T10:25:46.198Z,9604
2016-04-22T10:26:46.200Z,8308
2016-04-22T10:27:46.047Z,7500
2016-04-22T10:28:46.190Z,7120
2016-04-22T10:29:46.240Z,6976
2016-04-22T10:30:46.180Z,6476
2016-04-22T10:31:46.183Z,6664
2016-04-22T10:32:46.186Z,7048
2016-04-22T10:33:46.220Z,6716
2016-04-22T10:34:46.176Z,7396
2016-04-22T10:35:46.209Z,8832
2016-04-22T10:36:46.227Z,10668
2016-04-22T10:37:46.214Z,12552
2016-04-22T10:38:45.467Z,13528
2016-04-22T10:39:46.205Z,13720
2016-04-22T10:40:46.191Z,12948
2016-04-22T10:41:47.772Z,11652
2016-04-22T10:42:47.291Z,10840
2016-04-22T10:43:47.903Z,10748
2016-04-22T10:44:45.921Z,11788
2016-04-22T10:45:46.689Z,13828
2016-04-22T10:46:46.191Z,14788
2016-04-22T10:47:46.585Z,14352
2016-04-22T10:48:46.197Z,14052
2016-04-22T10:49:46.246Z,14012
2016-04-22T10:50:46.984Z,13492
2016-04-22T10:52:47.895Z,10472
2016-04-22T10:53:46.788Z,10056
2016-04-22T10:54:47.088Z,9964
2016-04-22T10:55:46.653Z,9048
2016-04-22T10:56:46.343Z,7672
2016-04-22T10:57:46.659Z,7104
2016-04-22T10:58:46.192Z,6904
2016-04-22T10:59:45.945Z,6816
2016-04-22T11:00:46.182Z,6920
2016-04-22T11:01:45.467Z,6888
2016-04-22T11:02:46.187Z,6840
2016-04-22T11:03:46.190Z,6672
2016-04-22T11:04:46.208Z,6476
2016-04-22T11:05:46.196Z,6300
2016-04-22T11:06:46.168Z,6120
2016-04-22T11:07:46.186Z,6072
2016-04-22T11:08:46.172Z,6432
2016-04-22T11:09:46.191Z,7156
2016-04-22T11:10:46.178Z,7428
2016-04-22T11:11:45.883Z,6988
2016-04-22T11:12:46.183Z,6564
2016-04-22T11:13:46.186Z,6328
2016-04-22T11:14:46.189Z,6288
2016-04-22T11:15:46.176Z,6028
2016-04-22T11:16:46.194Z,5696
2016-04-22T11:17:46.181Z,5472
2016-04-22T11:18:46.184Z,5352
2016-04-22T11:19:46.187Z,5348
2016-04-22T11:20:46.190Z,5488
2016-04-22T11:21:46.091Z,5668
2016-04-22T11:22:45.904Z,5764
2016-04-22T11:23:46.189Z,5640
2016-04-22T11:24:46.160Z,5844
2016-04-22T11:25:46.194Z,5900
2016-04-22T11:26:46.165Z,5640
2016-04-22T11:27:46.184Z,5436
2016-04-22T11:28:46.375Z,5088
2016-04-22T11:29:47.877Z,5056
2016-04-22T11:30:46.161Z,5100
2016-04-22T11:31:46.148Z,5124
2016-04-22T11:32:46.167Z,5120
2016-04-22T11:33:46.403Z,5040
2016-04-22T11:34:46.218Z,5004
2016-04-22T11:35:46.159Z,4936
2016-04-22T11:36:46.161Z,4872
2016-04-22T11:37:46.351Z,4836
2016-04-22T11:38:46.494Z,4816
2016-04-22T11:39:46.154Z,4840
2016-04-22T11:40:46.172Z,4812
2016-04-22T11:41:46.346Z,4780
2016-04-22T11:42:46.755Z,4728
2016-04-22T11:43:46.149Z,4648
2016-04-22T11:44:46.277Z,4708
2016-04-22T11:45:46.154Z,4720
2016-04-22T11:46:46.156Z,4732
2016-04-22T11:47:46.143Z,4780
2016-04-22T11:48:46.146Z,4804
2016-04-22T11:49:46.149Z,4836
2016-04-22T11:50:46.167Z,4928
2016-04-22T11:51:46.123Z,4956
2016-04-22T11:52:46.142Z,4980
2016-04-22T11:53:46.160Z,4980
2016-04-22T11:54:45.397Z,5000
2016-04-22T11:55:46.134Z,5100
2016-04-22T11:56:46.136Z,5184
2016-04-22T11:57:46.124Z,4980
2016-04-22T11:58:46.126Z,4856
2016-04-22T11:59:45.958Z,4732
2016-04-22T12:00:48.086Z,4708
2016-04-22T12:01:46.384Z,4680
2016-04-22T12:02:46.653Z,4688
2016-04-22T12:03:46.531Z,4660
2016-04-22T12:04:46.127Z,4636
2016-04-22T12:05:46.755Z,4556
2016-04-22T12:06:46.102Z,4552
2016-04-22T12:07:46.119Z,4532
2016-04-22T12:08:46.216Z,4496
2016-04-22T12:09:47.578Z,4468
2016-04-22T12:10:47.643Z,4484
2016-04-22T12:11:46.552Z,4480
2016-04-22T12:12:47.398Z,4480
2016-04-22T12:13:46.120Z,4468
2016-04-22T12:14:46.107Z,4444
2016-04-22T12:15:46.672Z,4456
2016-04-22T12:16:46.097Z,4456
2016-04-22T12:17:46.116Z,4456
2016-04-22T12:18:46.149Z,4452
2016-04-22T12:19:46.731Z,4376
2016-04-22T12:20:46.094Z,4456
2016-04-22T12:21:45.972Z,4448
2016-04-22T12:22:46.193Z,4432
2016-04-22T12:23:46.117Z,4412
2016-04-22T12:24:46.089Z,4408
2016-04-22T12:25:46.107Z,4396
2016-04-22T12:26:46.094Z,4420
2016-04-22T12:27:46.081Z,4424
2016-04-22T12:28:46.069Z,4424
2016-04-22T12:29:46.056Z,4428
2016-04-22T12:30:46.074Z,4432
2016-04-22T12:31:46.077Z,4428
2016-04-22T12:32:46.094Z,4424
2016-04-22T12:33:46.082Z,4428
2016-04-22T12:34:46.069Z,4444
2016-04-22T12:35:46.057Z,4472
2016-04-22T12:36:46.138Z,4500
2016-04-22T12:37:46.077Z,4532
2016-04-22T12:38:46.065Z,4700
2016-04-22T12:39:46.599Z,4784
2016-04-22T12:40:46.054Z,4900
2016-04-22T12:41:46.057Z,4832
2016-04-22T12:42:46.043Z,4444
2016-04-22T12:43:46.093Z,4308
2016-04-22T12:44:46.049Z,4232
2016-04-22T12:45:46.051Z,4248
2016-04-22T12:46:46.039Z,4444
2016-04-22T12:47:46.306Z,4364
2016-04-22T12:48:47.512Z,4712
2016-04-22T12:49:46.062Z,4832
2016-04-22T12:50:46.050Z,4784
2016-04-22T12:51:46.677Z,4640
2016-04-22T12:52:46.056Z,4532
2016-04-22T12:53:46.026Z,4468
2016-04-22T12:54:46.044Z,4424
2016-04-22T12:55:46.047Z,4404
2016-04-22T12:57:01.347Z,4400
2016-04-22T12:57:46.037Z,4408
2016-04-22T12:58:46.025Z,4452
2016-04-22T13:00:00.168Z,4536
2016-04-22T13:00:46.452Z,4548
2016-04-22T13:01:46.376Z,4464
2016-04-22T13:02:46.019Z,4432
2016-04-22T13:03:46.038Z,4428
2016-04-22T13:04:46.025Z,4468
2016-04-22T13:05:46.032Z,4516
2016-04-22T13:06:46.019Z,4556
2016-04-22T13:07:46.007Z,4592
2016-04-22T13:08:46.024Z,4620
2016-04-22T13:09:45.856Z,4640
2016-04-22T13:10:46.015Z,4736
2016-04-22T13:11:46.065Z,4980
2016-04-22T13:12:46.020Z,5504
2016-04-22T13:13:46.007Z,6184
2016-04-22T13:14:45.995Z,6628
2016-04-22T13:15:46.013Z,6576
2016-04-22T13:16:46.015Z,6024
2016-04-22T13:17:46.022Z,5624
2016-04-22T13:18:46.042Z,5376
2016-04-22T13:19:47.466Z,5112
2016-04-22T13:20:48.077Z,4992
2016-04-22T13:21:45.819Z,4896
2016-04-22T13:22:47.197Z,4904
2016-04-22T13:23:46.138Z,5008
2016-04-22T13:24:46.218Z,5096
2016-04-22T13:25:45.986Z,5180
2016-04-22T13:26:45.989Z,5192
2016-04-22T13:27:45.977Z,5224
2016-04-22T13:28:46.671Z,5152
2016-04-22T13:29:46.295Z,5096
2016-04-22T13:30:47.717Z,4980
2016-04-22T13:31:46.138Z,4864
2016-04-22T13:32:45.620Z,4732
2016-04-22T13:33:46.091Z,4620
2016-04-22T13:34:46.218Z,4588
2016-04-22T13:35:46.253Z,4564
2016-04-22T13:36:46.240Z,4512
2016-04-22T13:37:46.242Z,4532
2016-04-22T13:38:46.272Z,4556
2016-04-22T13:39:46.294Z,4592